createdAt,value
2019-06-26T00:00:03.763Z,47.47
2019-06-26T00:02:33.048Z,47.13
2019-06-26T00:05:02.394Z,48.80
2019-06-26T00:07:32.056Z,49.23
2019-06-26T00:10:01.432Z,47.70
2019-06-26T00:12:30.465Z,49.87
2019-06-26T00:15:00.484Z,47.50
2019-06-26T00:17:29.786Z,48.77
2019-06-26T00:19:58.947Z,47.10
2019-06-26T00:22:28.687Z,47.20
2019-06-26T00:24:57.983Z,48.20
2019-06-26T00:27:27.423Z,47.60
2019-06-26T00:29:56.708Z,48.00
2019-06-26T00:32:25.777Z,49.63
2019-06-26T00:34:55.491Z,48.07
2019-06-26T00:37:24.827Z,48.00
2019-06-26T00:39:53.753Z,49.00
2019-06-26T00:42:22.923Z,47.97
2019-06-26T00:44:52.191Z,47.30
2019-06-26T00:47:21.924Z,48.20
2019-06-26T00:49:51.210Z,48.63
2019-06-26T00:52:20.899Z,47.80
2019-06-26T00:54:50.229Z,47.10
2019-06-26T00:57:21.001Z,47.00
2019-06-26T00:59:49.864Z,49.60
2019-06-26T01:02:19.545Z,49.80
2019-06-26T01:04:50.980Z,47.60
2019-06-26T01:07:19.931Z,48.57
2019-06-26T01:09:48.817Z,47.83
2019-06-26T01:12:17.800Z,49.13
2019-06-26T01:14:47.629Z,47.60
2019-06-26T01:17:17.176Z,47.90
2019-06-26T01:19:46.035Z,48.17
2019-06-26T01:22:15.370Z,47.47
2019-06-26T01:24:44.663Z,49.50
2019-06-26T01:27:13.881Z,46.97
2019-06-26T01:29:43.386Z,47.70
2019-06-26T01:32:12.434Z,47.37
2019-06-26T01:34:41.775Z,46.90
2019-06-26T01:37:11.070Z,47.10
2019-06-26T01:39:40.691Z,47.03
2019-06-26T01:42:09.749Z,48.37
2019-06-26T01:44:38.624Z,48.77
2019-06-26T01:47:07.958Z,47.20
2019-06-26T01:49:37.160Z,47.17
2019-06-26T01:52:06.467Z,47.87
2019-06-26T01:54:35.502Z,47.50
2019-06-26T01:57:04.508Z,47.50
2019-06-26T01:59:33.474Z,48.07
2019-06-26T02:02:02.846Z,46.67
2019-06-26T02:04:32.446Z,47.40
2019-06-26T02:07:01.829Z,47.27
2019-06-26T02:09:31.028Z,50.83
2019-06-26T02:12:00.611Z,47.30
2019-06-26T02:14:31.559Z,46.80
2019-06-26T02:17:01.015Z,49.17
2019-06-26T02:19:30.551Z,48.37
2019-06-26T02:21:59.544Z,46.95
2019-06-26T02:24:28.517Z,48.80
2019-06-26T02:26:57.807Z,46.60
2019-06-26T02:29:26.661Z,47.43
2019-06-26T02:31:55.645Z,47.60
2019-06-26T02:34:24.582Z,47.90
2019-06-26T02:36:53.518Z,48.50
2019-06-26T02:39:22.499Z,46.93
2019-06-26T02:41:51.459Z,47.50
2019-06-26T02:44:20.516Z,47.67
2019-06-26T02:46:49.435Z,48.27
2019-06-26T02:49:18.331Z,48.43
2019-06-26T02:51:47.435Z,47.70
2019-06-26T02:54:16.376Z,48.17
2019-06-26T02:56:45.419Z,49.03
2019-06-26T02:59:14.808Z,47.40
2019-06-26T03:01:43.802Z,46.63
2019-06-26T03:04:12.920Z,48.33
2019-06-26T03:06:41.919Z,47.27
2019-06-26T03:09:10.951Z,47.00
2019-06-26T03:11:39.898Z,46.47
2019-06-26T03:14:08.890Z,47.13
2019-06-26T03:16:37.903Z,47.50
2019-06-26T03:19:06.939Z,47.40
2019-06-26T03:21:35.883Z,48.00
2019-06-26T03:24:05.379Z,47.90
2019-06-26T03:26:34.318Z,47.80
2019-06-26T03:29:03.363Z,47.50
2019-06-26T03:31:33.377Z,48.10
2019-06-26T03:34:02.306Z,47.00
2019-06-26T03:36:31.156Z,49.17
2019-06-26T03:39:00.454Z,47.87
2019-06-26T03:41:29.489Z,47.17
2019-06-26T03:43:58.366Z,47.50
2019-06-26T03:46:27.388Z,47.47
2019-06-26T03:48:56.940Z,47.73
2019-06-26T03:51:25.990Z,48.13
2019-06-26T03:53:55.344Z,48.20
2019-06-26T03:56:24.752Z,49.10
2019-06-26T03:58:53.724Z,46.97
2019-06-26T04:01:23.055Z,48.00
2019-06-26T04:03:52.642Z,46.57
2019-06-26T04:06:22.060Z,47.90
2019-06-26T04:08:51.452Z,47.37
2019-06-26T04:11:20.567Z,47.60
2019-06-26T04:13:49.492Z,47.97
2019-06-26T04:16:18.509Z,47.80
2019-06-26T04:18:48.041Z,48.03
2019-06-26T04:21:17.336Z,47.97
2019-06-26T04:23:47.028Z,48.97
2019-06-26T04:26:16.407Z,48.60
2019-06-26T04:28:46.355Z,48.20
2019-06-26T04:31:15.372Z,49.17
2019-06-26T04:33:44.332Z,49.50
2019-06-26T04:36:13.652Z,47.37
2019-06-26T04:38:42.835Z,47.30
2019-06-26T04:41:12.039Z,48.10
2019-06-26T04:43:40.986Z,47.50
2019-06-26T04:46:10.225Z,47.27
2019-06-26T04:48:39.247Z,47.80
2019-06-26T04:51:08.520Z,48.70
2019-06-26T04:53:38.261Z,48.40
2019-06-26T04:56:07.291Z,50.17
2019-06-26T04:58:37.763Z,47.67
2019-06-26T05:01:07.557Z,48.63
2019-06-26T05:03:36.755Z,48.50
2019-06-26T05:06:05.876Z,48.57
2019-06-26T05:08:35.159Z,47.57
2019-06-26T05:11:04.637Z,47.77
2019-06-26T05:13:33.559Z,47.57
2019-06-26T05:16:14.241Z,46.67
2019-06-26T05:18:34.101Z,48.13
2019-06-26T05:21:03.811Z,48.87
2019-06-26T05:23:32.763Z,47.10
2019-06-26T05:26:01.704Z,49.13
2019-06-26T05:28:30.678Z,53.00
2019-06-26T05:31:00.054Z,48.87
2019-06-26T05:33:29.429Z,50.40
2019-06-26T05:35:58.469Z,49.33
2019-06-26T05:38:27.423Z,48.70
2019-06-26T05:40:56.451Z,48.27
2019-06-26T05:43:25.804Z,49.13
2019-06-26T05:45:54.976Z,49.63
2019-06-26T05:48:24.604Z,49.67
2019-06-26T05:50:53.883Z,50.47
2019-06-26T05:53:22.791Z,50.57
2019-06-26T05:55:52.204Z,49.80
2019-06-26T05:58:21.584Z,50.80
2019-06-26T06:00:50.879Z,50.93
2019-06-26T06:03:19.701Z,51.67
2019-06-26T06:05:49.065Z,52.53
2019-06-26T06:08:18.374Z,50.67
2019-06-26T06:10:47.772Z,51.57
2019-06-26T06:13:17.268Z,51.17
2019-06-26T06:15:46.137Z,54.53
2019-06-26T06:18:15.186Z,53.80
2019-06-26T06:20:44.416Z,51.07
2019-06-26T06:23:13.408Z,51.57
2019-06-26T06:25:42.383Z,51.17
2019-06-26T06:28:11.413Z,50.97
2019-06-26T06:30:40.414Z,50.07
2019-06-26T06:33:09.646Z,50.70
2019-06-26T06:35:38.558Z,51.67
2019-06-26T06:38:07.674Z,51.10
2019-06-26T06:40:36.676Z,54.60
2019-06-26T06:43:05.624Z,50.77
2019-06-26T06:45:34.628Z,53.47
2019-06-26T06:48:04.325Z,50.30
2019-06-26T06:50:33.603Z,50.60
2019-06-26T06:53:02.697Z,52.87
2019-06-26T06:55:31.655Z,53.80
2019-06-26T06:58:00.508Z,51.07
2019-06-26T07:00:29.508Z,50.53
2019-06-26T07:02:58.709Z,50.17
2019-06-26T07:05:28.464Z,53.47
2019-06-26T07:07:57.505Z,53.93
2019-06-26T07:10:26.877Z,54.93
2019-06-26T07:12:56.006Z,51.57
2019-06-26T07:15:25.111Z,51.27
2019-06-26T07:17:54.662Z,52.40
2019-06-26T07:20:23.621Z,51.03
2019-06-26T07:22:52.469Z,49.50
2019-06-26T07:25:21.582Z,51.77
2019-06-26T07:27:51.140Z,51.17
2019-06-26T07:30:20.329Z,51.33
2019-06-26T07:32:49.723Z,50.17
2019-06-26T07:35:18.992Z,54.40
2019-06-26T07:37:48.015Z,59.77
2019-06-26T07:40:17.585Z,51.37
2019-06-26T07:42:47.040Z,51.10
2019-06-26T07:45:16.890Z,51.07
2019-06-26T07:47:47.670Z,50.50
2019-06-26T07:50:16.959Z,50.57
2019-06-26T07:52:46.035Z,50.77
2019-06-26T07:55:14.949Z,51.87
2019-06-26T07:57:44.220Z,51.10
2019-06-26T08:00:13.447Z,52.80
2019-06-26T08:02:42.299Z,50.10
2019-06-26T08:05:12.969Z,55.47
2019-06-26T08:07:41.954Z,55.87
2019-06-26T08:10:11.297Z,52.13
2019-06-26T08:12:40.220Z,51.63
2019-06-26T08:15:09.696Z,50.00
2019-06-26T08:17:38.734Z,51.90
2019-06-26T08:20:08.120Z,52.10
2019-06-26T08:22:37.423Z,51.33
2019-06-26T08:25:07.695Z,50.50
2019-06-26T08:27:36.716Z,50.80
2019-06-26T08:30:06.208Z,50.43
2019-06-26T08:32:35.143Z,49.63
2019-06-26T08:35:04.729Z,50.33
2019-06-26T08:37:33.582Z,50.37
2019-06-26T08:40:02.926Z,49.87
2019-06-26T08:42:32.120Z,50.03
2019-06-26T08:45:01.474Z,50.90
2019-06-26T08:47:36.647Z,49.73
2019-06-26T08:50:06.436Z,51.10
2019-06-26T08:52:35.863Z,52.53
2019-06-26T08:55:05.696Z,50.73
2019-06-26T08:57:34.626Z,50.27
2019-06-26T09:00:04.398Z,49.83
2019-06-26T09:02:33.581Z,54.63
2019-06-26T09:05:02.623Z,51.90
2019-06-26T09:07:31.851Z,50.43
2019-06-26T09:10:00.990Z,50.53
2019-06-26T09:12:29.856Z,49.87
2019-06-26T09:14:58.886Z,50.70
2019-06-26T09:17:27.912Z,51.90
2019-06-26T09:19:56.837Z,49.30
2019-06-26T09:22:25.887Z,53.07
2019-06-26T09:24:55.060Z,50.43
2019-06-26T09:27:24.383Z,50.87
2019-06-26T09:29:53.308Z,51.73
2019-06-26T09:32:22.561Z,50.37
2019-06-26T09:34:52.144Z,49.80
2019-06-26T09:37:21.359Z,50.57
2019-06-26T09:39:50.651Z,49.77
2019-06-26T09:42:19.974Z,52.77
2019-06-26T09:44:49.023Z,52.50
2019-06-26T09:47:17.957Z,51.43
2019-06-26T09:49:46.940Z,55.80
2019-06-26T09:52:16.119Z,50.53
2019-06-26T09:54:45.337Z,53.37
2019-06-26T09:57:14.526Z,50.50
2019-06-26T09:59:43.543Z,50.83
2019-06-26T10:02:12.810Z,50.83
2019-06-26T10:04:42.009Z,52.53
2019-06-26T10:07:10.843Z,51.53
2019-06-26T10:09:39.800Z,51.00
2019-06-26T10:12:08.846Z,53.10
2019-06-26T10:14:47.360Z,51.67
2019-06-26T10:17:08.651Z,49.70
2019-06-26T10:19:37.583Z,51.63
2019-06-26T10:22:06.601Z,49.03
2019-06-26T10:24:35.607Z,51.67
2019-06-26T10:27:05.301Z,51.70
2019-06-26T10:29:34.173Z,49.87
2019-06-26T10:32:03.216Z,51.40
2019-06-26T10:34:32.382Z,49.40
2019-06-26T10:37:01.495Z,53.67
2019-06-26T10:39:30.745Z,50.07
2019-06-26T10:42:00.182Z,51.13
2019-06-26T10:44:29.114Z,50.17
2019-06-26T10:46:58.096Z,50.07
2019-06-26T10:49:27.919Z,52.23
2019-06-26T10:51:57.291Z,52.07
2019-06-26T10:54:26.160Z,50.00
2019-06-26T10:56:55.158Z,51.43
2019-06-26T10:59:24.460Z,49.70
2019-06-26T11:01:53.857Z,49.80
2019-06-26T11:04:23.180Z,50.23
2019-06-26T11:06:52.243Z,50.30
2019-06-26T11:09:21.273Z,50.90
2019-06-26T11:11:50.135Z,50.37
2019-06-26T11:14:19.143Z,51.37
2019-06-26T11:16:48.431Z,51.67
2019-06-26T11:19:17.791Z,50.17
2019-06-26T11:21:46.795Z,52.63
2019-06-26T11:24:16.024Z,51.97
2019-06-26T11:26:44.968Z,53.20
2019-06-26T11:29:14.126Z,49.50
2019-06-26T11:31:43.295Z,52.00
2019-06-26T11:34:12.288Z,50.50
2019-06-26T11:36:41.248Z,50.03
2019-06-26T11:39:10.908Z,52.40
2019-06-26T11:41:40.170Z,50.50
2019-06-26T11:44:09.510Z,49.50
2019-06-26T11:46:38.889Z,50.30
2019-06-26T11:49:08.317Z,50.73
2019-06-26T11:51:37.341Z,49.77
2019-06-26T11:54:06.710Z,50.40
2019-06-26T11:56:36.009Z,50.07
2019-06-26T11:59:05.411Z,51.10
2019-06-26T12:01:34.362Z,50.70
2019-06-26T12:04:03.368Z,52.10
2019-06-26T12:06:32.619Z,51.10
2019-06-26T12:09:02.211Z,50.10
2019-06-26T12:11:31.524Z,52.90
2019-06-26T12:14:00.700Z,50.17
2019-06-26T12:16:29.899Z,52.23
2019-06-26T12:18:58.712Z,51.47
2019-06-26T12:21:27.610Z,49.77
2019-06-26T12:23:56.629Z,50.40
2019-06-26T12:26:25.930Z,51.80
2019-06-26T12:28:55.171Z,50.70
2019-06-26T12:31:24.529Z,51.10
2019-06-26T12:33:53.902Z,51.10
2019-06-26T12:36:22.885Z,49.98
2019-06-26T12:38:51.814Z,50.10
2019-06-26T12:41:20.860Z,50.20
2019-06-26T12:43:49.731Z,48.57
2019-06-26T12:46:18.706Z,49.37
2019-06-26T12:48:47.534Z,50.13
2019-06-26T12:51:16.564Z,49.17
2019-06-26T12:53:45.616Z,52.97
2019-06-26T12:56:14.922Z,50.88
2019-06-26T12:58:44.184Z,53.03
2019-06-26T13:01:13.481Z,50.98
2019-06-26T13:03:42.768Z,50.30
2019-06-26T13:06:12.016Z,50.20
2019-06-26T13:08:41.020Z,49.27
2019-06-26T13:11:10.260Z,50.27
2019-06-26T13:13:39.309Z,50.73
2019-06-26T13:16:08.594Z,50.13
2019-06-26T13:18:37.575Z,51.00
2019-06-26T13:21:07.353Z,50.90
2019-06-26T13:23:36.603Z,51.13
2019-06-26T13:26:05.612Z,50.33
2019-06-26T13:28:34.670Z,49.60
2019-06-26T13:31:03.622Z,51.23
2019-06-26T13:33:32.829Z,50.60
2019-06-26T13:36:01.774Z,50.05
2019-06-26T13:38:30.873Z,50.13
2019-06-26T13:40:59.820Z,48.42
2019-06-26T13:43:28.725Z,53.20
2019-06-26T13:45:58.859Z,50.40
2019-06-26T13:48:28.039Z,52.10
2019-06-26T13:51:08.757Z,49.90
2019-06-26T13:53:27.663Z,49.33
2019-06-26T13:55:56.683Z,50.53
2019-06-26T13:58:26.392Z,53.70
2019-06-26T14:00:55.590Z,49.67
2019-06-26T14:03:24.544Z,49.23
2019-06-26T14:05:53.507Z,49.73
2019-06-26T14:08:22.531Z,49.37
2019-06-26T14:10:51.800Z,48.55
2019-06-26T14:13:20.655Z,50.05
2019-06-26T14:15:49.756Z,48.90
2019-06-26T14:18:18.751Z,49.40
2019-06-26T14:20:48.352Z,49.63
2019-06-26T14:23:17.227Z,48.30
2019-06-26T14:25:46.784Z,48.37
2019-06-26T14:28:18.672Z,50.45
2019-06-26T14:30:46.492Z,49.35
2019-06-26T14:33:15.443Z,48.73
2019-06-26T14:35:44.717Z,48.65
2019-06-26T14:38:14.037Z,49.57
2019-06-26T14:40:42.969Z,49.98
2019-06-26T14:43:11.917Z,50.00
2019-06-26T14:45:40.785Z,47.75
2019-06-26T14:48:09.799Z,49.95
2019-06-26T14:50:38.697Z,49.60
2019-06-26T14:53:07.968Z,55.63
2019-06-26T14:55:36.880Z,48.25
2019-06-26T14:58:05.957Z,50.95
2019-06-26T15:00:35.643Z,51.00
2019-06-26T15:03:05.529Z,50.10
2019-06-26T15:05:34.456Z,48.40
2019-06-26T15:08:03.445Z,48.90
2019-06-26T15:10:32.364Z,50.30
2019-06-26T15:13:01.246Z,49.20
2019-06-26T15:15:30.304Z,53.90
2019-06-26T15:17:59.688Z,52.00
2019-06-26T15:20:28.768Z,50.08
2019-06-26T15:22:58.947Z,49.95
2019-06-26T15:25:28.285Z,50.13
2019-06-26T15:27:57.266Z,48.80
2019-06-26T15:30:26.254Z,49.53
2019-06-26T15:32:55.240Z,48.15
2019-06-26T15:35:24.232Z,50.55
2019-06-26T15:37:53.659Z,48.50
2019-06-26T15:40:23.119Z,51.60
2019-06-26T15:42:52.198Z,48.33
2019-06-26T15:45:21.460Z,48.20
2019-06-26T15:47:50.810Z,48.95
2019-06-26T15:50:20.154Z,52.30
2019-06-26T15:52:49.424Z,49.43
2019-06-26T15:55:18.393Z,49.38
2019-06-26T15:57:47.407Z,50.25
2019-06-26T16:00:16.842Z,51.83
2019-06-26T16:02:45.881Z,49.98
2019-06-26T16:05:15.150Z,49.83
2019-06-26T16:07:44.313Z,51.75
2019-06-26T16:10:14.178Z,49.80
2019-06-26T16:12:43.351Z,53.52
2019-06-26T16:15:12.772Z,52.30
2019-06-26T16:17:57.150Z,48.28
2019-06-26T16:20:26.134Z,48.85
2019-06-26T16:22:55.151Z,51.08
2019-06-26T16:25:24.203Z,51.07
2019-06-26T16:28:04.595Z,50.53
2019-06-26T16:30:24.226Z,50.35
2019-06-26T16:32:56.021Z,51.90
2019-06-26T16:35:24.024Z,50.03
2019-06-26T16:37:53.108Z,49.53
2019-06-26T16:40:22.107Z,49.57
2019-06-26T16:42:51.046Z,49.75
2019-06-26T16:45:21.563Z,51.93
2019-06-26T16:47:50.796Z,51.80
2019-06-26T16:50:19.864Z,49.97
2019-06-26T16:52:50.250Z,52.20
2019-06-26T16:55:19.667Z,49.17
2019-06-26T16:57:48.700Z,50.50
2019-06-26T17:00:20.746Z,50.03
2019-06-26T17:02:50.193Z,51.53
2019-06-26T17:05:19.264Z,51.73
2019-06-26T17:07:48.461Z,49.30
2019-06-26T17:10:19.476Z,50.30
2019-06-26T17:12:48.534Z,49.80
2019-06-26T17:15:17.672Z,51.83
2019-06-26T17:17:47.194Z,49.63
2019-06-26T17:20:16.226Z,51.10
2019-06-26T17:22:45.313Z,50.65
2019-06-26T17:25:15.249Z,51.87
2019-06-26T17:27:44.243Z,49.00
2019-06-26T17:30:14.076Z,50.93
2019-06-26T17:32:43.263Z,49.97
2019-06-26T17:35:13.095Z,51.40
2019-06-26T17:37:42.031Z,50.77
2019-06-26T17:40:11.161Z,50.67
2019-06-26T17:42:40.175Z,50.07
2019-06-26T17:45:09.648Z,51.30
2019-06-26T17:47:38.642Z,53.03
2019-06-26T17:50:08.379Z,51.27
2019-06-26T17:52:38.587Z,52.27
2019-06-26T17:55:07.981Z,51.30
2019-06-26T17:57:37.231Z,50.20
2019-06-26T18:00:07.208Z,49.80
2019-06-26T18:02:36.225Z,58.07
2019-06-26T18:05:05.939Z,51.70
2019-06-26T18:07:35.020Z,51.83
2019-06-26T18:10:04.663Z,53.10
2019-06-26T18:12:33.908Z,51.17
2019-06-26T18:15:02.948Z,51.17
2019-06-26T18:17:32.007Z,56.83
2019-06-26T18:20:01.301Z,51.23
2019-06-26T18:22:30.287Z,51.47
2019-06-26T18:24:59.252Z,51.07
2019-06-26T18:27:28.577Z,51.93
2019-06-26T18:29:57.705Z,54.40
2019-06-26T18:32:26.695Z,53.43
2019-06-26T18:34:56.068Z,52.37
2019-06-26T18:37:25.305Z,56.43
2019-06-26T18:39:54.583Z,54.40
2019-06-26T18:42:23.822Z,50.67
2019-06-26T18:44:53.045Z,50.47
2019-06-26T18:47:21.962Z,51.53
2019-06-26T18:49:51.199Z,51.97
2019-06-26T18:52:20.844Z,52.73
2019-06-26T18:54:50.024Z,54.73
2019-06-26T18:57:19.325Z,56.70
2019-06-26T18:59:48.605Z,53.40
2019-06-26T19:02:17.484Z,50.90
2019-06-26T19:04:48.059Z,52.70
2019-06-26T19:07:17.341Z,51.03
2019-06-26T19:09:46.581Z,51.93
2019-06-26T19:12:15.826Z,50.90
2019-06-26T19:14:46.144Z,51.70
2019-06-26T19:17:15.728Z,51.13
2019-06-26T19:19:45.038Z,52.53
2019-06-26T19:22:14.801Z,52.87
2019-06-26T19:24:44.103Z,53.50
2019-06-26T19:27:13.582Z,52.37
2019-06-26T19:29:42.584Z,49.80
2019-06-26T19:32:11.609Z,52.43
2019-06-26T19:34:40.983Z,54.20
2019-06-26T19:37:10.281Z,50.57
2019-06-26T19:39:39.168Z,52.87
2019-06-26T19:42:08.106Z,51.80
2019-06-26T19:44:37.138Z,52.90
2019-06-26T19:47:06.451Z,52.47
2019-06-26T19:49:36.109Z,52.23
2019-06-26T19:52:05.180Z,51.60
2019-06-26T19:54:34.556Z,52.30
2019-06-26T19:57:03.617Z,56.23
2019-06-26T19:59:33.154Z,51.20
2019-06-26T20:02:02.489Z,54.05
2019-06-26T20:04:31.790Z,52.87
2019-06-26T20:07:00.786Z,53.10
2019-06-26T20:09:29.746Z,52.13
2019-06-26T20:11:58.830Z,55.07
2019-06-26T20:14:28.513Z,55.20
2019-06-26T20:16:57.878Z,54.07
2019-06-26T20:19:27.501Z,54.50
2019-06-26T20:21:56.597Z,54.80
2019-06-26T20:24:25.521Z,62.57
2019-06-26T20:26:54.540Z,53.40
2019-06-26T20:29:23.682Z,66.10
2019-06-26T20:32:20.019Z,65.47
2019-06-26T20:34:50.101Z,56.27
2019-06-26T20:37:19.184Z,56.17
2019-06-26T21:13:48.316Z,56.37
2019-06-26T21:16:17.919Z,51.60
2019-06-26T21:18:48.467Z,54.07
2019-06-26T21:21:20.681Z,57.93
2019-06-26T21:23:52.024Z,56.10
2019-06-26T21:26:59.371Z,55.67
2019-06-26T21:30:16.556Z,55.00
2019-06-26T21:40:09.784Z,54.87
2019-06-26T21:42:39.173Z,54.67
2019-06-26T21:45:09.580Z,53.33
2019-06-26T21:47:38.835Z,53.20
2019-06-26T21:50:08.321Z,55.37
2019-06-26T21:52:38.029Z,51.97
2019-06-26T21:55:07.156Z,53.87
2019-06-26T21:57:36.260Z,50.87
2019-06-26T22:00:06.413Z,52.23
2019-06-26T22:02:35.544Z,53.20
2019-06-26T22:05:05.574Z,53.80
2019-06-26T22:07:34.618Z,51.60
2019-06-26T22:10:04.783Z,53.23
2019-06-26T22:12:33.808Z,51.30
2019-06-26T22:15:03.159Z,52.40
2019-06-26T22:17:32.447Z,54.60
2019-06-26T22:20:02.090Z,52.70
2019-06-26T22:22:31.480Z,52.07
2019-06-26T22:25:00.822Z,51.27
2019-06-26T22:27:30.157Z,52.10
2019-06-26T22:29:59.416Z,50.80
2019-06-26T22:32:28.607Z,53.03
2019-06-26T22:34:58.158Z,52.30
2019-06-26T22:37:27.459Z,52.80
2019-06-26T22:39:56.763Z,51.73
2019-06-26T22:42:26.939Z,54.90
2019-06-26T22:44:55.895Z,52.13
2019-06-26T22:47:25.155Z,52.17
2019-06-26T22:49:54.649Z,55.97
2019-06-26T22:52:24.135Z,53.97
2019-06-26T22:54:53.189Z,53.83
2019-06-26T22:57:22.199Z,52.30
2019-06-26T22:59:51.163Z,53.67
2019-06-26T23:02:20.025Z,55.70
2019-06-26T23:04:49.245Z,52.63
2019-06-26T23:07:18.248Z,51.03
2019-06-26T23:10:06.477Z,50.60
2019-06-26T23:12:35.489Z,52.30
2019-06-26T23:15:04.983Z,51.13
2019-06-26T23:17:33.986Z,50.60
2019-06-26T23:20:03.265Z,53.10
2019-06-26T23:22:32.200Z,51.60
2019-06-26T23:25:01.162Z,52.87
2019-06-26T23:27:30.250Z,50.20
2019-06-26T23:29:59.325Z,51.10
2019-06-26T23:32:28.270Z,50.70
2019-06-26T23:34:58.180Z,49.77
2019-06-26T23:37:27.385Z,50.03
2019-06-26T23:39:56.410Z,50.67
2019-06-26T23:42:25.625Z,50.77
2019-06-26T23:44:54.840Z,50.03
2019-06-26T23:47:23.836Z,51.00
2019-06-26T23:49:52.711Z,51.37
2019-06-26T23:52:21.630Z,50.27
2019-06-26T23:54:50.578Z,50.37
2019-06-26T23:57:19.461Z,50.40
2019-06-26T23:59:48.913Z,52.23
